sensor_id;sensor_type;location;lat;lon;timestamp;pressure;altitude;pressure_sealevel;temperature;humidity
55733;BME280;41637;52.364;9.910;2023-04-03T00:00:48;102389.38;;;0.18;76.78
55733;BME280;41637;52.364;9.910;2023-04-03T00:03:17;102385.17;;;0.14;76.88
55733;BME280;41637;52.364;9.910;2023-04-03T00:05:45;102388.62;;;0.11;76.84
55733;BME280;41637;52.364;9.910;2023-04-03T00:08:12;102388.64;;;0.07;77.21
55733;BME280;41637;52.364;9.910;2023-04-03T00:10:39;102389.30;;;0.03;77.48
55733;BME280;41637;52.364;9.910;2023-04-03T00:13:07;102389.62;;;0.00;77.80
55733;BME280;41637;52.364;9.910;2023-04-03T00:15:34;102389.41;;;-0.04;78.02
55733;BME280;41637;52.364;9.910;2023-04-03T00:18:02;102391.77;;;-0.06;78.20
55733;BME280;41637;52.364;9.910;2023-04-03T00:20:29;102393.98;;;-0.09;78.22
55733;BME280;41637;52.364;9.910;2023-04-03T00:22:56;102396.35;;;-0.12;78.50
55733;BME280;41637;52.364;9.910;2023-04-03T00:25:23;102400.52;;;-0.15;79.10
55733;BME280;41637;52.364;9.910;2023-04-03T00:27:49;102401.49;;;-0.18;78.98
55733;BME280;41637;52.364;9.910;2023-04-03T00:30:18;102403.52;;;-0.21;79.19
55733;BME280;41637;52.364;9.910;2023-04-03T00:32:47;102406.07;;;-0.24;79.13
55733;BME280;41637;52.364;9.910;2023-04-03T00:35:14;102408.65;;;-0.27;79.35
55733;BME280;41637;52.364;9.910;2023-04-03T00:37:45;102410.90;;;-0.31;79.48
55733;BME280;41637;52.364;9.910;2023-04-03T00:40:13;102414.52;;;-0.35;79.67
55733;BME280;41637;52.364;9.910;2023-04-03T00:42:41;102412.95;;;-0.39;79.64
55733;BME280;41637;52.364;9.910;2023-04-03T00:47:51;102421.27;;;-0.47;79.87
55733;BME280;41637;52.364;9.910;2023-04-03T00:50:18;102418.80;;;-0.51;79.89
55733;BME280;41637;52.364;9.910;2023-04-03T00:52:45;102418.27;;;-0.55;80.08
55733;BME280;41637;52.364;9.910;2023-04-03T00:55:13;102421.24;;;-0.59;80.16
55733;BME280;41637;52.364;9.910;2023-04-03T00:57:49;102424.37;;;-0.64;80.30
55733;BME280;41637;52.364;9.910;2023-04-03T01:00:19;102428.87;;;-0.68;80.56
55733;BME280;41637;52.364;9.910;2023-04-03T01:02:46;102425.05;;;-0.73;80.49
55733;BME280;41637;52.364;9.910;2023-04-03T01:05:15;102432.67;;;-0.76;80.74
55733;BME280;41637;52.364;9.910;2023-04-03T01:07:42;102429.35;;;-0.80;80.87
55733;BME280;41637;52.364;9.910;2023-04-03T01:10:12;102432.11;;;-0.85;80.94
55733;BME280;41637;52.364;9.910;2023-04-03T01:12:42;102434.84;;;-0.89;81.04
55733;BME280;41637;52.364;9.910;2023-04-03T01:15:16;102432.94;;;-0.93;81.19
55733;BME280;41637;52.364;9.910;2023-04-03T01:17:54;102428.91;;;-0.97;81.34
55733;BME280;41637;52.364;9.910;2023-04-03T01:28:11;102434.30;;;-1.11;82.33
55733;BME280;41637;52.364;9.910;2023-04-03T01:31:20;102435.09;;;-1.13;82.44
55733;BME280;41637;52.364;9.910;2023-04-03T01:33:49;102435.21;;;-1.17;82.61
55733;BME280;41637;52.364;9.910;2023-04-03T01:36:22;102430.95;;;-1.19;82.69
55733;BME280;41637;52.364;9.910;2023-04-03T01:38:50;102435.38;;;-1.21;82.94
55733;BME280;41637;52.364;9.910;2023-04-03T01:41:17;102440.48;;;-1.24;82.99
55733;BME280;41637;52.364;9.910;2023-04-03T01:43:44;102437.45;;;-1.26;83.13
55733;BME280;41637;52.364;9.910;2023-04-03T01:46:11;102436.84;;;-1.28;83.30
55733;BME280;41637;52.364;9.910;2023-04-03T01:48:37;102441.40;;;-1.30;83.50
55733;BME280;41637;52.364;9.910;2023-04-03T01:51:04;102441.13;;;-1.31;83.75
55733;BME280;41637;52.364;9.910;2023-04-03T01:53:31;102443.45;;;-1.33;83.66
55733;BME280;41637;52.364;9.910;2023-04-03T01:55:58;102445.23;;;-1.35;83.81
55733;BME280;41637;52.364;9.910;2023-04-03T01:58:24;102447.04;;;-1.37;83.99
55733;BME280;41637;52.364;9.910;2023-04-03T02:00:51;102448.15;;;-1.39;84.16
55733;BME280;41637;52.364;9.910;2023-04-03T02:03:18;102451.35;;;-1.41;84.15
55733;BME280;41637;52.364;9.910;2023-04-03T02:05:45;102453.48;;;-1.42;84.43
55733;BME280;41637;52.364;9.910;2023-04-03T02:08:12;102454.24;;;-1.44;84.25
55733;BME280;41637;52.364;9.910;2023-04-03T02:10:39;102453.96;;;-1.46;84.55
55733;BME280;41637;52.364;9.910;2023-04-03T02:13:15;102451.57;;;-1.47;84.68
55733;BME280;41637;52.364;9.910;2023-04-03T02:15:42;102449.36;;;-1.49;84.64
55733;BME280;41637;52.364;9.910;2023-04-03T02:18:09;102450.62;;;-1.50;84.72
55733;BME280;41637;52.364;9.910;2023-04-03T02:20:36;102452.25;;;-1.52;84.68
55733;BME280;41637;52.364;9.910;2023-04-03T02:23:04;102448.50;;;-1.54;84.81
55733;BME280;41637;52.364;9.910;2023-04-03T02:25:31;102448.73;;;-1.55;85.08
55733;BME280;41637;52.364;9.910;2023-04-03T02:27:58;102449.83;;;-1.57;84.94
55733;BME280;41637;52.364;9.910;2023-04-03T02:30:25;102453.19;;;-1.59;85.28
55733;BME280;41637;52.364;9.910;2023-04-03T02:32:53;102454.34;;;-1.61;85.37
55733;BME280;41637;52.364;9.910;2023-04-03T02:35:20;102454.77;;;-1.64;85.42
55733;BME280;41637;52.364;9.910;2023-04-03T02:37:46;102453.29;;;-1.67;85.45
55733;BME280;41637;52.364;9.910;2023-04-03T02:40:13;102451.15;;;-1.70;85.49
55733;BME280;41637;52.364;9.910;2023-04-03T02:42:40;102453.66;;;-1.73;85.57
55733;BME280;41637;52.364;9.910;2023-04-03T02:45:09;102456.36;;;-1.76;85.75
55733;BME280;41637;52.364;9.910;2023-04-03T02:47:36;102458.70;;;-1.78;85.84
55733;BME280;41637;52.364;9.910;2023-04-03T02:50:04;102459.66;;;-1.81;85.86
55733;BME280;41637;52.364;9.910;2023-04-03T02:52:31;102458.02;;;-1.84;85.96
55733;BME280;41637;52.364;9.910;2023-04-03T02:54:58;102461.20;;;-1.86;86.41
55733;BME280;41637;52.364;9.910;2023-04-03T02:57:25;102463.69;;;-1.88;86.66
55733;BME280;41637;52.364;9.910;2023-04-03T02:59:51;102464.41;;;-1.88;86.88
55733;BME280;41637;52.364;9.910;2023-04-03T03:02:18;102464.45;;;-1.90;86.78
55733;BME280;41637;52.364;9.910;2023-04-03T03:04:45;102464.17;;;-1.92;86.72
55733;BME280;41637;52.364;9.910;2023-04-03T03:07:11;102467.52;;;-1.93;86.78
55733;BME280;41637;52.364;9.910;2023-04-03T03:09:38;102460.31;;;-1.96;86.95
55733;BME280;41637;52.364;9.910;2023-04-03T03:12:07;102462.96;;;-1.97;87.02
55733;BME280;41637;52.364;9.910;2023-04-03T03:14:37;102466.14;;;-1.98;86.84
55733;BME280;41637;52.364;9.910;2023-04-03T03:17:06;102467.22;;;-1.99;87.17
55733;BME280;41637;52.364;9.910;2023-04-03T03:19:33;102463.98;;;-2.01;87.35
55733;BME280;41637;52.364;9.910;2023-04-03T03:22:00;102463.31;;;-2.02;87.42
55733;BME280;41637;52.364;9.910;2023-04-03T03:24:26;102468.76;;;-2.05;87.41
55733;BME280;41637;52.364;9.910;2023-04-03T03:26:53;102474.16;;;-2.06;87.43
55733;BME280;41637;52.364;9.910;2023-04-03T03:29:20;102474.73;;;-2.07;87.49
55733;BME280;41637;52.364;9.910;2023-04-03T03:31:47;102473.08;;;-2.10;87.38
55733;BME280;41637;52.364;9.910;2023-04-03T03:34:14;102479.34;;;-2.11;87.39
55733;BME280;41637;52.364;9.910;2023-04-03T03:36:40;102476.83;;;-2.13;87.58
55733;BME280;41637;52.364;9.910;2023-04-03T03:39:07;102476.88;;;-2.15;87.65
55733;BME280;41637;52.364;9.910;2023-04-03T03:41:34;102477.27;;;-2.16;87.59
55733;BME280;41637;52.364;9.910;2023-04-03T03:44:00;102478.87;;;-2.17;87.76
55733;BME280;41637;52.364;9.910;2023-04-03T03:46:27;102479.45;;;-2.19;87.87
55733;BME280;41637;52.364;9.910;2023-04-03T03:49:03;102480.54;;;-2.20;87.94
55733;BME280;41637;52.364;9.910;2023-04-03T03:51:29;102480.24;;;-2.22;88.25
55733;BME280;41637;52.364;9.910;2023-04-03T03:53:56;102481.09;;;-2.22;88.70
55733;BME280;41637;52.364;9.910;2023-04-03T03:56:23;102483.04;;;-2.23;88.90
55733;BME280;41637;52.364;9.910;2023-04-03T03:58:50;102481.66;;;-2.23;88.67
55733;BME280;41637;52.364;9.910;2023-04-03T04:01:16;102483.60;;;-2.24;88.80
55733;BME280;41637;52.364;9.910;2023-04-03T04:03:43;102481.38;;;-2.25;88.99
55733;BME280;41637;52.364;9.910;2023-04-03T04:06:10;102485.39;;;-2.26;88.91
55733;BME280;41637;52.364;9.910;2023-04-03T04:08:36;102486.59;;;-2.26;89.21
55733;BME280;41637;52.364;9.910;2023-04-03T04:11:03;102487.46;;;-2.26;89.45
55733;BME280;41637;52.364;9.910;2023-04-03T04:13:30;102484.38;;;-2.27;89.42
55733;BME280;41637;52.364;9.910;2023-04-03T04:15:57;102484.20;;;-2.28;89.25
55733;BME280;41637;52.364;9.910;2023-04-03T04:18:23;102481.62;;;-2.28;89.32
55733;BME280;41637;52.364;9.910;2023-04-03T04:20:50;102483.04;;;-2.28;89.51
55733;BME280;41637;52.364;9.910;2023-04-03T04:23:18;102482.85;;;-2.29;89.58
55733;BME280;41637;52.364;9.910;2023-04-03T04:25:46;102478.91;;;-2.29;89.69
55733;BME280;41637;52.364;9.910;2023-04-03T04:28:13;102480.98;;;-2.29;89.77
55733;BME280;41637;52.364;9.910;2023-04-03T04:30:40;102481.52;;;-2.30;89.48
55733;BME280;41637;52.364;9.910;2023-04-03T04:33:07;102482.38;;;-2.30;89.73
55733;BME280;41637;52.364;9.910;2023-04-03T04:35:34;102487.27;;;-2.31;89.78
55733;BME280;41637;52.364;9.910;2023-04-03T04:38:01;102487.98;;;-2.32;89.76
55733;BME280;41637;52.364;9.910;2023-04-03T04:40:29;102490.12;;;-2.33;89.78
55733;BME280;41637;52.364;9.910;2023-04-03T04:42:56;102497.05;;;-2.33;89.73
55733;BME280;41637;52.364;9.910;2023-04-03T04:45:22;102499.30;;;-2.33;89.73
55733;BME280;41637;52.364;9.910;2023-04-03T04:47:49;102497.41;;;-2.34;89.79
55733;BME280;41637;52.364;9.910;2023-04-03T04:50:18;102496.91;;;-2.35;89.68
55733;BME280;41637;52.364;9.910;2023-04-03T04:52:45;102495.55;;;-2.35;89.71
55733;BME280;41637;52.364;9.910;2023-04-03T04:55:12;102500.73;;;-2.35;89.83
55733;BME280;41637;52.364;9.910;2023-04-03T04:57:38;102500.21;;;-2.35;89.74
55733;BME280;41637;52.364;9.910;2023-04-03T05:00:06;102501.09;;;-2.35;89.92
55733;BME280;41637;52.364;9.910;2023-04-03T05:02:33;102503.17;;;-2.35;89.85
55733;BME280;41637;52.364;9.910;2023-04-03T05:04:59;102502.44;;;-2.34;89.87
55733;BME280;41637;52.364;9.910;2023-04-03T05:07:29;102505.85;;;-2.32;89.87
55733;BME280;41637;52.364;9.910;2023-04-03T05:09:56;102505.81;;;-2.31;89.74
55733;BME280;41637;52.364;9.910;2023-04-03T05:12:22;102521.72;;;-2.30;89.71
55733;BME280;41637;52.364;9.910;2023-04-03T05:14:49;102525.15;;;-2.29;89.83
55733;BME280;41637;52.364;9.910;2023-04-03T05:17:16;102526.15;;;-2.27;89.90
55733;BME280;41637;52.364;9.910;2023-04-03T05:19:42;102524.02;;;-2.25;89.89
55733;BME280;41637;52.364;9.910;2023-04-03T05:22:09;102526.86;;;-2.22;90.29
55733;BME280;41637;52.364;9.910;2023-04-03T05:24:36;102525.38;;;-2.19;90.31
55733;BME280;41637;52.364;9.910;2023-04-03T05:27:03;102525.93;;;-2.15;90.39
55733;BME280;41637;52.364;9.910;2023-04-03T05:29:30;102527.52;;;-2.09;90.41
55733;BME280;41637;52.364;9.910;2023-04-03T05:31:56;102531.46;;;-2.03;90.41
55733;BME280;41637;52.364;9.910;2023-04-03T05:34:23;102538.20;;;-1.96;90.52
55733;BME280;41637;52.364;9.910;2023-04-03T05:36:50;102539.89;;;-1.90;90.71
55733;BME280;41637;52.364;9.910;2023-04-03T05:39:17;102549.17;;;-1.82;90.61
55733;BME280;41637;52.364;9.910;2023-04-03T05:41:44;102546.54;;;-1.75;90.47
55733;BME280;41637;52.364;9.910;2023-04-03T05:44:11;102551.67;;;-1.68;90.30
55733;BME280;41637;52.364;9.910;2023-04-03T05:46:37;102554.68;;;-1.59;90.31
55733;BME280;41637;52.364;9.910;2023-04-03T05:49:04;102558.88;;;-1.49;90.18
55733;BME280;41637;52.364;9.910;2023-04-03T05:51:34;102559.27;;;-1.40;90.07
55733;BME280;41637;52.364;9.910;2023-04-03T05:54:18;102561.58;;;-1.32;90.02
55733;BME280;41637;52.364;9.910;2023-04-03T05:56:47;102565.67;;;-1.19;89.72
55733;BME280;41637;52.364;9.910;2023-04-03T05:59:13;102567.92;;;-1.09;89.75
55733;BME280;41637;52.364;9.910;2023-04-03T06:01:43;102570.98;;;-0.97;89.68
55733;BME280;41637;52.364;9.910;2023-04-03T06:04:10;102572.32;;;-0.86;89.49
55733;BME280;41637;52.364;9.910;2023-04-03T06:06:45;102572.69;;;-0.76;89.06
55733;BME280;41637;52.364;9.910;2023-04-03T06:09:12;102575.92;;;-0.65;88.90
55733;BME280;41637;52.364;9.910;2023-04-03T06:11:38;102579.73;;;-0.55;88.55
55733;BME280;41637;52.364;9.910;2023-04-03T06:14:05;102583.38;;;-0.46;88.28
55733;BME280;41637;52.364;9.910;2023-04-03T06:16:32;102587.88;;;-0.35;88.04
55733;BME280;41637;52.364;9.910;2023-04-03T06:18:59;102582.22;;;-0.24;88.07
55733;BME280;41637;52.364;9.910;2023-04-03T06:21:26;102583.98;;;-0.11;87.79
55733;BME280;41637;52.364;9.910;2023-04-03T06:23:53;102585.80;;;0.00;87.24
55733;BME280;41637;52.364;9.910;2023-04-03T06:26:19;102587.81;;;0.12;86.97
55733;BME280;41637;52.364;9.910;2023-04-03T06:28:47;102589.70;;;0.21;86.53
55733;BME280;41637;52.364;9.910;2023-04-03T06:31:13;102590.54;;;0.30;86.26
55733;BME280;41637;52.364;9.910;2023-04-03T06:33:40;102592.30;;;0.43;86.22
55733;BME280;41637;52.364;9.910;2023-04-03T06:36:07;102589.39;;;0.54;85.58
55733;BME280;41637;52.364;9.910;2023-04-03T06:38:34;102585.16;;;0.64;85.32
55733;BME280;41637;52.364;9.910;2023-04-03T06:41:01;102590.13;;;0.74;84.87
55733;BME280;41637;52.364;9.910;2023-04-03T06:43:27;102588.08;;;0.86;84.69
55733;BME280;41637;52.364;9.910;2023-04-03T06:45:54;102593.25;;;0.99;84.40
55733;BME280;41637;52.364;9.910;2023-04-03T06:48:21;102595.33;;;1.12;83.83
55733;BME280;41637;52.364;9.910;2023-04-03T06:50:47;102597.83;;;1.23;83.49
55733;BME280;41637;52.364;9.910;2023-04-03T06:53:14;102600.13;;;1.33;82.50
55733;BME280;41637;52.364;9.910;2023-04-03T06:55:41;102606.20;;;1.42;82.25
55733;BME280;41637;52.364;9.910;2023-04-03T06:58:07;102608.10;;;1.50;81.26
55733;BME280;41637;52.364;9.910;2023-04-03T07:00:34;102615.71;;;1.59;80.89
55733;BME280;41637;52.364;9.910;2023-04-03T07:03:09;102612.38;;;1.71;80.92
55733;BME280;41637;52.364;9.910;2023-04-03T07:05:36;102612.98;;;1.85;80.67
55733;BME280;41637;52.364;9.910;2023-04-03T07:08:03;102613.63;;;1.97;79.89
55733;BME280;41637;52.364;9.910;2023-04-03T07:10:30;102616.96;;;2.08;79.31
55733;BME280;41637;52.364;9.910;2023-04-03T07:12:57;102623.16;;;2.17;78.74
55733;BME280;41637;52.364;9.910;2023-04-03T07:15:24;102627.41;;;2.31;78.37
55733;BME280;41637;52.364;9.910;2023-04-03T07:17:51;102627.97;;;2.41;77.99
55733;BME280;41637;52.364;9.910;2023-04-03T07:20:17;102630.94;;;2.55;78.05
55733;BME280;41637;52.364;9.910;2023-04-03T07:22:46;102632.92;;;2.72;77.49
55733;BME280;41637;52.364;9.910;2023-04-03T07:25:13;102634.04;;;2.84;76.72
55733;BME280;41637;52.364;9.910;2023-04-03T07:27:39;102639.42;;;2.96;75.67
55733;BME280;41637;52.364;9.910;2023-04-03T07:30:06;102639.95;;;3.06;75.29
55733;BME280;41637;52.364;9.910;2023-04-03T07:32:36;102642.61;;;3.19;74.89
55733;BME280;41637;52.364;9.910;2023-04-03T07:35:03;102640.76;;;3.31;74.68
55733;BME280;41637;52.364;9.910;2023-04-03T07:37:30;102645.14;;;3.44;74.00
55733;BME280;41637;52.364;9.910;2023-04-03T07:39:57;102644.33;;;3.56;73.43
55733;BME280;41637;52.364;9.910;2023-04-03T07:42:25;102644.42;;;3.58;71.32
55733;BME280;41637;52.364;9.910;2023-04-03T07:44:54;102642.70;;;3.64;71.63
55733;BME280;41637;52.364;9.910;2023-04-03T07:47:20;102643.98;;;3.73;71.20
55733;BME280;41637;52.364;9.910;2023-04-03T07:49:48;102642.27;;;3.88;71.80
55733;BME280;41637;52.364;9.910;2023-04-03T07:52:15;102639.20;;;4.03;70.35
55733;BME280;41637;52.364;9.910;2023-04-03T07:54:41;102640.93;;;4.16;69.77
55733;BME280;41637;52.364;9.910;2023-04-03T07:57:08;102644.43;;;4.25;68.62
55733;BME280;41637;52.364;9.910;2023-04-03T07:59:35;102640.29;;;4.37;68.73
55733;BME280;41637;52.364;9.910;2023-04-03T08:02:01;102635.91;;;4.53;68.78
55733;BME280;41637;52.364;9.910;2023-04-03T08:04:31;102637.65;;;4.71;68.49
55733;BME280;41637;52.364;9.910;2023-04-03T08:06:57;102644.80;;;4.83;67.11
55733;BME280;41637;52.364;9.910;2023-04-03T08:09:24;102644.15;;;4.95;65.96
55733;BME280;41637;52.364;9.910;2023-04-03T08:11:51;102642.58;;;5.01;64.65
55733;BME280;41637;52.364;9.910;2023-04-03T08:14:20;102637.27;;;5.13;65.63
55733;BME280;41637;52.364;9.910;2023-04-03T08:16:48;102639.38;;;5.25;64.89
55733;BME280;41637;52.364;9.910;2023-04-03T08:19:15;102639.73;;;5.31;64.27
55733;BME280;41637;52.364;9.910;2023-04-03T08:21:52;102644.85;;;5.34;64.04
55733;BME280;41637;52.364;9.910;2023-04-03T08:24:19;102646.64;;;5.39;63.26
55733;BME280;41637;52.364;9.910;2023-04-03T08:26:45;102646.85;;;5.47;63.38
55733;BME280;41637;52.364;9.910;2023-04-03T08:29:12;102640.52;;;5.50;62.44
55733;BME280;41637;52.364;9.910;2023-04-03T08:31:39;102644.56;;;5.55;62.74
55733;BME280;41637;52.364;9.910;2023-04-03T08:34:06;102645.10;;;5.58;61.63
55733;BME280;41637;52.364;9.910;2023-04-03T08:36:32;102649.48;;;5.61;62.04
55733;BME280;41637;52.364;9.910;2023-04-03T08:38:59;102648.84;;;5.71;62.08
55733;BME280;41637;52.364;9.910;2023-04-03T08:41:36;102646.38;;;5.80;60.83
55733;BME280;41637;52.364;9.910;2023-04-03T08:49:44;102641.36;;;5.96;58.62
55733;BME280;41637;52.364;9.910;2023-04-03T08:52:19;102635.33;;;5.97;57.59
55733;BME280;41637;52.364;9.910;2023-04-03T08:54:55;102636.84;;;6.01;57.36
55733;BME280;41637;52.364;9.910;2023-04-03T08:57:30;102632.42;;;6.13;56.54
55733;BME280;41637;52.364;9.910;2023-04-03T09:00:05;102629.77;;;6.16;54.54
55733;BME280;41637;52.364;9.910;2023-04-03T09:02:35;102630.11;;;6.29;56.16
55733;BME280;41637;52.364;9.910;2023-04-03T09:05:16;102634.73;;;6.47;55.68
55733;BME280;41637;52.364;9.910;2023-04-03T09:08:07;102633.80;;;6.65;55.59
55733;BME280;41637;52.364;9.910;2023-04-03T09:10:39;102630.61;;;6.78;55.87
55733;BME280;41637;52.364;9.910;2023-04-03T09:13:52;102631.94;;;7.05;55.31
55733;BME280;41637;52.364;9.910;2023-04-03T09:24:45;102629.42;;;7.90;50.15
55733;BME280;41637;52.364;9.910;2023-04-03T09:27:13;102619.30;;;8.11;49.91
55733;BME280;41637;52.364;9.910;2023-04-03T09:29:42;102621.89;;;8.30;49.06
55733;BME280;41637;52.364;9.910;2023-04-03T09:32:29;102623.19;;;8.42;47.71
55733;BME280;41637;52.364;9.910;2023-04-03T09:35:01;102622.02;;;8.55;45.17
55733;BME280;41637;52.364;9.910;2023-04-03T09:37:48;102614.39;;;8.63;45.28
55733;BME280;41637;52.364;9.910;2023-04-03T09:40:36;102615.51;;;8.76;46.12
55733;BME280;41637;52.364;9.910;2023-04-03T09:45:46;102610.85;;;8.84;43.99
55733;BME280;41637;52.364;9.910;2023-04-03T09:53:28;102606.48;;;9.30;42.57
55733;BME280;41637;52.364;9.910;2023-04-03T09:55:56;102599.57;;;9.39;40.82
55733;BME280;41637;52.364;9.910;2023-04-03T09:58:26;102598.13;;;9.40;41.16
55733;BME280;41637;52.364;9.910;2023-04-03T10:01:02;102593.86;;;9.31;41.72
55733;BME280;41637;52.364;9.910;2023-04-03T10:03:32;102592.00;;;9.12;40.73
55733;BME280;41637;52.364;9.910;2023-04-03T10:06:00;102598.67;;;8.89;40.96
55733;BME280;41637;52.364;9.910;2023-04-03T10:08:34;102593.40;;;8.73;41.30
55733;BME280;41637;52.364;9.910;2023-04-03T10:13:32;102596.45;;;8.70;42.72
55733;BME280;41637;52.364;9.910;2023-04-03T10:16:14;102587.89;;;8.78;40.91
55733;BME280;41637;52.364;9.910;2023-04-03T10:19:09;102589.38;;;8.86;40.65
55733;BME280;41637;52.364;9.910;2023-04-03T10:22:09;102574.61;;;9.08;39.94
55733;BME280;41637;52.364;9.910;2023-04-03T10:25:15;102577.29;;;9.53;40.26
55733;BME280;41637;52.364;9.910;2023-04-03T10:27:54;102567.71;;;9.98;39.05
55733;BME280;41637;52.364;9.910;2023-04-03T10:36:04;102570.05;;;10.45;39.19
55733;BME280;41637;52.364;9.910;2023-04-03T10:39:02;102568.10;;;10.35;37.59
55733;BME280;41637;52.364;9.910;2023-04-03T10:52:57;102566.86;;;9.01;38.46
55733;BME280;41637;52.364;9.910;2023-04-03T10:55:40;102567.21;;;8.78;38.61
55733;BME280;41637;52.364;9.910;2023-04-03T10:58:20;102569.04;;;8.62;39.40
55733;BME280;41637;52.364;9.910;2023-04-03T11:00:51;102564.05;;;8.45;40.02
55733;BME280;41637;52.364;9.910;2023-04-03T11:03:27;102560.41;;;8.35;39.94
55733;BME280;41637;52.364;9.910;2023-04-03T11:05:55;102561.23;;;8.24;40.76
55733;BME280;41637;52.364;9.910;2023-04-03T11:08:32;102556.45;;;8.12;40.86
55733;BME280;41637;52.364;9.910;2023-04-03T11:11:05;102554.23;;;8.16;41.89
55733;BME280;41637;52.364;9.910;2023-04-03T11:13:48;102551.79;;;8.32;41.15
55733;BME280;41637;52.364;9.910;2023-04-03T11:16:20;102552.58;;;8.48;40.97
55733;BME280;41637;52.364;9.910;2023-04-03T11:19:02;102550.63;;;8.69;40.88
55733;BME280;41637;52.364;9.910;2023-04-03T11:21:36;102546.52;;;9.00;41.24
55733;BME280;41637;52.364;9.910;2023-04-03T11:24:05;102541.73;;;9.20;39.30
55733;BME280;41637;52.364;9.910;2023-04-03T11:26:41;102539.54;;;9.30;38.54
55733;BME280;41637;52.364;9.910;2023-04-03T11:29:13;102529.58;;;9.51;39.25
55733;BME280;41637;52.364;9.910;2023-04-03T11:34:50;102518.05;;;10.17;38.35
55733;BME280;41637;52.364;9.910;2023-04-03T11:37:46;102518.36;;;10.26;36.99
55733;BME280;41637;52.364;9.910;2023-04-03T11:42:48;102524.98;;;10.12;37.60
55733;BME280;41637;52.364;9.910;2023-04-03T11:48:41;102518.73;;;9.87;38.04
55733;BME280;41637;52.364;9.910;2023-04-03T11:53:40;102516.15;;;9.20;38.40
55733;BME280;41637;52.364;9.910;2023-04-03T12:01:55;102510.52;;;9.53;38.56
55733;BME280;41637;52.364;9.910;2023-04-03T12:04:27;102509.65;;;9.99;38.33
55733;BME280;41637;52.364;9.910;2023-04-03T12:07:12;102512.79;;;10.86;37.56
55733;BME280;41637;52.364;9.910;2023-04-03T12:12:34;102499.75;;;12.74;34.79
55733;BME280;41637;52.364;9.910;2023-04-03T12:17:49;102501.19;;;14.37;32.08
55733;BME280;41637;52.364;9.910;2023-04-03T12:23:28;102492.58;;;15.59;30.05
55733;BME280;41637;52.364;9.910;2023-04-03T12:28:37;102489.03;;;16.85;28.63
55733;BME280;41637;52.364;9.910;2023-04-03T12:31:05;102488.06;;;16.87;27.89
55733;BME280;41637;52.364;9.910;2023-04-03T12:36:48;102484.52;;;15.75;28.61
55733;BME280;41637;52.364;9.910;2023-04-03T12:42:39;102487.15;;;14.51;29.48
55733;BME280;41637;52.364;9.910;2023-04-03T12:45:22;102474.32;;;16.12;28.99
55733;BME280;41637;52.364;9.910;2023-04-03T12:47:52;102466.34;;;16.12;26.95
55733;BME280;41637;52.364;9.910;2023-04-03T12:50:23;102461.92;;;15.57;27.35
55733;BME280;41637;52.364;9.910;2023-04-03T12:52:59;102470.09;;;15.13;27.57
55733;BME280;41637;52.364;9.910;2023-04-03T12:55:27;102463.05;;;15.69;28.19
55733;BME280;41637;52.364;9.910;2023-04-03T12:57:54;102462.21;;;15.46;27.59
55733;BME280;41637;52.364;9.910;2023-04-03T13:00:33;102463.89;;;15.00;27.70
55733;BME280;41637;52.364;9.910;2023-04-03T13:03:02;102455.50;;;15.22;28.56
55733;BME280;41637;52.364;9.910;2023-04-03T13:05:31;102459.70;;;15.06;28.52
55733;BME280;41637;52.364;9.910;2023-04-03T13:08:05;102461.32;;;14.57;28.95
55733;BME280;41637;52.364;9.910;2023-04-03T13:10:50;102457.38;;;13.91;28.06
55733;BME280;41637;52.364;9.910;2023-04-03T13:13:19;102455.20;;;13.30;28.84
55733;BME280;41637;52.364;9.910;2023-04-03T13:15:47;102454.42;;;12.88;29.34
55733;BME280;41637;52.364;9.910;2023-04-03T13:18:30;102452.54;;;13.02;30.29
55733;BME280;41637;52.364;9.910;2023-04-03T13:21:18;102445.89;;;14.91;28.89
55733;BME280;41637;52.364;9.910;2023-04-03T13:23:48;102437.94;;;17.35;26.72
55733;BME280;41637;52.364;9.910;2023-04-03T13:26:25;102433.11;;;19.29;24.07
55733;BME280;41637;52.364;9.910;2023-04-03T13:28:53;102430.52;;;20.73;22.22
55733;BME280;41637;52.364;9.910;2023-04-03T13:31:28;102427.69;;;21.88;20.97
55733;BME280;41637;52.364;9.910;2023-04-03T13:34:17;102425.00;;;23.21;20.22
55733;BME280;41637;52.364;9.910;2023-04-03T13:36:58;102418.55;;;24.02;18.76
55733;BME280;41637;52.364;9.910;2023-04-03T13:39:30;102417.15;;;24.95;18.34
55733;BME280;41637;52.364;9.910;2023-04-03T13:41:59;102410.98;;;25.53;17.62
55733;BME280;41637;52.364;9.910;2023-04-03T13:44:34;102405.56;;;25.65;17.55
55733;BME280;41637;52.364;9.910;2023-04-03T13:50:04;102398.58;;;26.79;17.22
55733;BME280;41637;52.364;9.910;2023-04-03T14:05:45;102391.92;;;20.36;20.46
55733;BME280;41637;52.364;9.910;2023-04-03T14:08:12;102388.19;;;21.27;20.61
55733;BME280;41637;52.364;9.910;2023-04-03T14:10:38;102392.48;;;20.73;20.59
55733;BME280;41637;52.364;9.910;2023-04-03T14:13:05;102392.08;;;20.42;21.18
55733;BME280;41637;52.364;9.910;2023-04-03T14:15:32;102388.52;;;21.79;20.76
55733;BME280;41637;52.364;9.910;2023-04-03T14:17:59;102384.42;;;22.57;19.67
55733;BME280;41637;52.364;9.910;2023-04-03T14:20:31;102387.70;;;21.81;19.90
55733;BME280;41637;52.364;9.910;2023-04-03T14:22:58;102387.23;;;20.56;20.47
55733;BME280;41637;52.364;9.910;2023-04-03T14:25:25;102382.69;;;20.62;21.05
55733;BME280;41637;52.364;9.910;2023-04-03T14:27:52;102376.10;;;21.90;20.17
55733;BME280;41637;52.364;9.910;2023-04-03T14:30:31;102380.05;;;21.97;19.60
55733;BME280;41637;52.364;9.910;2023-04-03T14:32:59;102379.93;;;20.57;20.59
55733;BME280;41637;52.364;9.910;2023-04-03T14:35:27;102380.23;;;19.54;21.48
55733;BME280;41637;52.364;9.910;2023-04-03T14:37:54;102372.86;;;19.62;21.43
55733;BME280;41637;52.364;9.910;2023-04-03T14:40:25;102370.09;;;20.03;20.73
55733;BME280;41637;52.364;9.910;2023-04-03T14:42:53;102371.02;;;20.42;20.23
55733;BME280;41637;52.364;9.910;2023-04-03T14:45:22;102365.13;;;19.36;20.52
55733;BME280;41637;52.364;9.910;2023-04-03T14:47:54;102368.33;;;18.31;21.73
55733;BME280;41637;52.364;9.910;2023-04-03T14:50:26;102366.17;;;17.29;22.85